createdAt,value
2023-05-18T00:02:26.564Z,71.21
2023-05-18T00:04:54.766Z,71.31
2023-05-18T00:07:23.077Z,71.52
2023-05-18T00:09:51.934Z,71.52
2023-05-18T00:12:19.659Z,71.40
2023-05-18T00:14:47.454Z,71.23
2023-05-18T00:17:16.173Z,71.03
2023-05-18T00:19:46.739Z,71.00
2023-05-18T00:22:20.642Z,71.17
2023-05-18T00:24:49.058Z,71.26
2023-05-18T00:27:16.815Z,71.20
2023-05-18T00:29:44.724Z,71.33
2023-05-18T00:32:13.350Z,71.36
2023-05-18T00:34:41.138Z,71.35
2023-05-18T00:37:08.856Z,71.23
2023-05-18T00:39:37.013Z,71.36
2023-05-18T00:42:06.581Z,71.53
2023-05-18T00:44:34.548Z,71.66
2023-05-18T00:47:02.377Z,71.88
2023-05-18T00:49:30.529Z,72.07
2023-05-18T00:51:58.584Z,72.32
2023-05-18T00:54:27.299Z,72.48
2023-05-18T00:56:55.157Z,72.70
2023-05-18T00:59:22.953Z,72.87
2023-05-18T01:01:51.699Z,73.06
2023-05-18T01:04:21.801Z,73.13
2023-05-18T01:06:50.150Z,73.23
2023-05-18T01:09:18.116Z,73.42
2023-05-18T01:12:19.868Z,73.56
2023-05-18T01:15:03.761Z,73.55
2023-05-18T01:18:14.934Z,73.41
2023-05-18T01:21:13.665Z,73.50
2023-05-18T01:24:01.055Z,73.50
2023-05-18T01:26:31.791Z,73.53
2023-05-18T01:29:06.826Z,73.56
2023-05-18T01:31:35.240Z,73.73
2023-05-18T01:34:03.950Z,73.53
2023-05-18T01:36:32.998Z,73.57
2023-05-18T01:39:02.247Z,73.52
2023-05-18T01:41:32.417Z,73.43
2023-05-18T01:44:23.537Z,73.48
2023-05-18T01:46:51.241Z,73.37
2023-05-18T01:49:48.246Z,73.44
2023-05-18T01:52:24.937Z,73.37
2023-05-18T01:54:57.846Z,73.50
2023-05-18T01:57:30.169Z,73.65
2023-05-18T02:00:00.326Z,73.68
2023-05-18T02:02:29.817Z,73.81
2023-05-18T02:04:58.068Z,73.55
2023-05-18T02:07:25.921Z,73.38
2023-05-18T02:09:54.362Z,73.44
2023-05-18T02:12:23.186Z,73.32
2023-05-18T02:14:51.048Z,73.41
2023-05-18T02:17:18.818Z,73.52
2023-05-18T02:19:46.545Z,73.51
2023-05-18T02:22:14.303Z,73.60
2023-05-18T02:24:42.835Z,73.65
2023-05-18T02:27:10.620Z,73.73
2023-05-18T02:29:38.583Z,73.82
2023-05-18T02:32:07.104Z,73.81
2023-05-18T02:34:36.195Z,73.89
2023-05-18T02:37:04.477Z,73.97
2023-05-18T02:39:34.057Z,74.04
2023-05-18T02:42:02.029Z,74.11
2023-05-18T02:44:29.822Z,74.17
2023-05-18T02:46:57.528Z,74.13
2023-05-18T02:49:25.723Z,74.26
2023-05-18T02:51:53.388Z,74.26
2023-05-18T02:54:21.400Z,74.43
2023-05-18T02:56:49.157Z,74.46
2023-05-18T02:59:26.737Z,74.43
2023-05-18T03:01:54.665Z,74.53
2023-05-18T03:04:26.094Z,74.83
2023-05-18T03:06:57.506Z,74.91
2023-05-18T03:09:25.785Z,74.76
2023-05-18T03:11:55.186Z,74.87
2023-05-18T03:14:23.006Z,74.93
2023-05-18T03:16:54.400Z,74.93
2023-05-18T03:19:24.575Z,74.79
2023-05-18T03:21:52.460Z,74.78
2023-05-18T03:24:20.598Z,74.76
2023-05-18T03:26:50.327Z,74.70
2023-05-18T03:29:18.201Z,74.82
2023-05-18T03:31:46.206Z,75.14
2023-05-18T03:34:14.923Z,75.11
2023-05-18T03:36:47.696Z,75.19
2023-05-18T03:39:16.275Z,75.32
2023-05-18T03:41:44.125Z,75.25
2023-05-18T03:44:11.868Z,75.15
2023-05-18T03:46:39.756Z,75.09
2023-05-18T03:49:14.865Z,75.09
2023-05-18T03:51:43.932Z,75.07
2023-05-18T03:54:11.727Z,75.16
2023-05-18T03:56:39.734Z,75.05
2023-05-18T03:59:08.218Z,75.04
2023-05-18T04:01:37.075Z,75.10
2023-05-18T04:04:05.175Z,75.10
2023-05-18T04:06:37.877Z,75.12
2023-05-18T04:09:05.923Z,75.30
2023-05-18T04:11:34.447Z,75.33
2023-05-18T04:14:02.427Z,75.21
2023-05-18T04:16:31.595Z,75.29
2023-05-18T04:19:06.261Z,75.18
2023-05-18T04:21:36.282Z,75.12
2023-05-18T04:24:06.088Z,74.97
2023-05-18T04:26:36.995Z,75.10
2023-05-18T04:29:04.880Z,74.99
2023-05-18T04:31:32.666Z,74.90
2023-05-18T04:34:01.578Z,74.87
2023-05-18T04:36:32.775Z,74.75
2023-05-18T04:39:03.769Z,74.81
2023-05-18T04:41:34.280Z,74.69
2023-05-18T04:44:03.246Z,74.71
2023-05-18T04:46:31.494Z,74.72
2023-05-18T04:48:59.462Z,74.73
2023-05-18T04:51:27.593Z,74.49
2023-05-18T04:53:55.793Z,74.40
2023-05-18T04:56:23.582Z,74.09
2023-05-18T04:58:51.631Z,73.89
2023-05-18T05:01:19.524Z,73.60
2023-05-18T05:03:47.313Z,73.44
2023-05-18T05:06:15.985Z,72.97
2023-05-18T05:08:43.857Z,72.66
2023-05-18T05:11:11.541Z,72.14
2023-05-18T05:13:39.244Z,72.43
2023-05-18T05:16:08.860Z,72.09
2023-05-18T05:18:37.016Z,71.94
2023-05-18T05:21:04.821Z,72.12
2023-05-18T05:23:32.559Z,71.84
2023-05-18T05:26:00.417Z,72.08
2023-05-18T05:28:30.130Z,72.01
2023-05-18T05:30:57.801Z,71.38
2023-05-18T05:33:25.756Z,71.56
2023-05-18T05:35:53.893Z,70.78
2023-05-18T05:38:22.077Z,70.83
2023-05-18T05:40:49.925Z,70.52
2023-05-18T05:43:18.047Z,69.97
2023-05-18T05:45:47.426Z,70.09
2023-05-18T05:48:15.343Z,69.56
2023-05-18T05:50:43.130Z,69.42
2023-05-18T05:53:11.225Z,69.26
2023-05-18T05:55:42.128Z,68.69
2023-05-18T05:58:16.067Z,68.40
2023-05-18T06:00:49.504Z,68.71
2023-05-18T06:03:17.251Z,68.53
2023-05-18T06:05:47.259Z,67.78
2023-05-18T06:08:17.268Z,68.23
2023-05-18T06:10:45.868Z,67.62
2023-05-18T06:13:14.593Z,67.52
2023-05-18T06:15:54.771Z,67.52
2023-05-18T06:18:24.722Z,67.00
2023-05-18T06:20:57.098Z,67.04
2023-05-18T06:23:25.246Z,67.23
2023-05-18T06:26:02.245Z,67.05
2023-05-18T06:28:49.302Z,66.36
2023-05-18T06:31:40.664Z,66.24
2023-05-18T06:34:14.197Z,65.23
2023-05-18T06:36:42.069Z,66.14
2023-05-18T06:39:09.874Z,65.57
2023-05-18T06:41:38.054Z,63.77
2023-05-18T06:44:07.544Z,62.60
2023-05-18T06:46:39.211Z,63.16
2023-05-18T06:49:13.863Z,63.01
2023-05-18T06:51:43.844Z,62.95
2023-05-18T06:54:12.188Z,62.57
2023-05-18T06:56:40.176Z,61.26
2023-05-18T06:59:11.151Z,60.74
2023-05-18T07:01:40.610Z,59.73
2023-05-18T07:04:09.167Z,59.28
2023-05-18T07:06:37.216Z,59.23
2023-05-18T07:09:09.358Z,60.29
2023-05-18T07:11:37.159Z,58.71
2023-05-18T07:14:04.814Z,58.96
2023-05-18T07:16:33.269Z,58.44
2023-05-18T07:19:01.603Z,58.49
2023-05-18T07:21:29.446Z,57.20
2023-05-18T07:23:57.348Z,57.24
2023-05-18T07:26:25.171Z,56.38
2023-05-18T07:28:53.059Z,57.18
2023-05-18T07:31:22.312Z,57.05
2023-05-18T07:33:50.673Z,56.20
2023-05-18T07:36:18.700Z,56.30
2023-05-18T07:38:46.618Z,57.64
2023-05-18T07:41:14.391Z,56.01
2023-05-18T07:43:42.378Z,56.99
2023-05-18T07:46:11.165Z,54.38
2023-05-18T07:48:40.752Z,55.47
2023-05-18T07:51:09.105Z,56.55
2023-05-18T07:53:38.057Z,53.40
2023-05-18T07:56:08.435Z,55.06
2023-05-18T07:58:37.424Z,51.73
2023-05-18T08:01:05.664Z,51.28
2023-05-18T08:03:33.844Z,51.11
2023-05-18T08:06:01.903Z,54.45
2023-05-18T08:08:29.974Z,51.44
2023-05-18T08:10:59.388Z,53.19
2023-05-18T08:13:27.179Z,50.85
2023-05-18T08:16:09.848Z,50.84
2023-05-18T08:18:39.813Z,50.54
2023-05-18T08:21:09.921Z,53.30
2023-05-18T08:23:39.245Z,51.25
2023-05-18T08:26:10.063Z,49.05
2023-05-18T08:28:38.921Z,51.73
2023-05-18T08:31:07.406Z,50.48
2023-05-18T08:33:37.079Z,49.22
2023-05-18T08:36:05.309Z,50.49
2023-05-18T08:38:33.383Z,50.36
2023-05-18T08:41:19.228Z,49.98
2023-05-18T08:43:54.129Z,50.55
2023-05-18T08:46:33.739Z,49.79
2023-05-18T08:49:04.981Z,49.51
2023-05-18T08:51:41.976Z,49.24
2023-05-18T08:54:15.802Z,50.12
2023-05-18T08:56:46.134Z,50.27
2023-05-18T08:59:18.820Z,48.05
2023-05-18T09:01:47.971Z,47.67
2023-05-18T09:04:16.878Z,48.90
2023-05-18T09:06:45.243Z,47.77
2023-05-18T09:09:15.277Z,49.69
2023-05-18T09:11:43.263Z,48.17
2023-05-18T09:14:11.195Z,50.01
2023-05-18T09:16:39.178Z,47.17
2023-05-18T09:19:07.691Z,47.07
2023-05-18T09:21:36.087Z,46.59
2023-05-18T09:24:04.693Z,46.05
2023-05-18T09:26:32.625Z,46.17
2023-05-18T09:29:00.595Z,44.43
2023-05-18T09:31:30.984Z,45.33
2023-05-18T09:34:01.405Z,43.66
2023-05-18T09:36:32.451Z,45.01
2023-05-18T09:39:00.351Z,41.77
2023-05-18T09:41:28.674Z,43.85
2023-05-18T09:43:57.097Z,44.13
2023-05-18T09:46:25.209Z,44.08
2023-05-18T09:48:55.290Z,44.16
2023-05-18T09:51:25.401Z,43.64
2023-05-18T09:53:58.172Z,43.08
2023-05-18T09:56:27.354Z,40.17
2023-05-18T09:58:55.480Z,41.91
2023-05-18T10:01:23.447Z,39.89
2023-05-18T10:03:51.363Z,40.73
2023-05-18T10:06:21.237Z,39.81
2023-05-18T10:08:49.514Z,39.64
2023-05-18T10:11:21.918Z,42.81
2023-05-18T10:13:56.136Z,39.48
2023-05-18T10:16:25.827Z,39.41
2023-05-18T10:18:56.158Z,41.44
2023-05-18T10:21:27.440Z,40.09
2023-05-18T10:23:55.565Z,38.27
2023-05-18T10:26:28.569Z,37.91
2023-05-18T10:28:59.083Z,37.48
2023-05-18T10:31:30.787Z,37.03
2023-05-18T10:34:00.625Z,38.08
2023-05-18T10:36:30.256Z,38.74
2023-05-18T10:39:03.033Z,40.57
2023-05-18T10:41:33.684Z,37.30
2023-05-18T10:44:04.175Z,39.17
2023-05-18T10:46:33.426Z,38.99
2023-05-18T10:49:04.001Z,36.39
2023-05-18T10:51:32.156Z,36.28
2023-05-18T10:54:13.418Z,38.05
2023-05-18T10:56:49.359Z,37.43
2023-05-18T10:59:23.379Z,38.76
2023-05-18T11:01:54.035Z,38.67
2023-05-18T11:04:30.095Z,38.07
2023-05-18T11:07:02.410Z,38.54
2023-05-18T11:09:31.359Z,36.83
2023-05-18T11:12:01.059Z,38.66
2023-05-18T11:14:32.854Z,36.76
2023-05-18T11:17:23.900Z,37.95
2023-05-18T11:20:07.330Z,36.44
2023-05-18T11:22:48.420Z,35.72
2023-05-18T11:25:28.893Z,36.14
2023-05-18T11:28:03.434Z,35.75
2023-05-18T11:30:34.472Z,35.77
2023-05-18T11:33:21.044Z,34.88
2023-05-18T11:36:07.621Z,34.25
2023-05-18T11:38:54.783Z,35.67
2023-05-18T11:41:39.117Z,36.16
2023-05-18T11:44:14.226Z,34.64
2023-05-18T11:47:01.871Z,36.16
2023-05-18T11:49:42.552Z,36.16
2023-05-18T11:52:22.172Z,36.64
2023-05-18T11:55:01.118Z,34.13
2023-05-18T11:57:35.560Z,35.76
2023-05-18T12:00:13.673Z,34.55
2023-05-18T12:02:47.990Z,33.63
2023-05-18T12:05:16.484Z,36.06
2023-05-18T12:07:45.157Z,36.50
2023-05-18T12:10:15.184Z,36.15
2023-05-18T12:12:43.849Z,36.90
2023-05-18T12:15:16.512Z,35.42
2023-05-18T12:17:49.833Z,35.72
2023-05-18T12:20:22.981Z,35.21
2023-05-18T12:22:54.033Z,38.99
2023-05-18T12:25:24.393Z,37.41
2023-05-18T12:27:54.004Z,35.67
2023-05-18T12:30:35.028Z,36.14
2023-05-18T12:33:04.253Z,38.18
2023-05-18T12:35:33.562Z,36.45
2023-05-18T12:38:02.655Z,37.68
2023-05-18T12:40:46.518Z,34.77
2023-05-18T12:43:14.541Z,35.06
2023-05-18T12:45:45.839Z,35.21
2023-05-18T12:48:15.163Z,34.32
2023-05-18T12:50:53.177Z,34.45
2023-05-18T12:53:21.165Z,34.08
2023-05-18T12:55:59.844Z,33.64
2023-05-18T12:58:30.441Z,33.56
2023-05-18T13:00:58.460Z,33.65
2023-05-18T13:03:26.818Z,33.08
2023-05-18T13:06:10.175Z,32.91
2023-05-18T13:08:38.312Z,34.01
2023-05-18T13:11:14.796Z,31.84
2023-05-18T13:14:04.362Z,31.73
2023-05-18T13:16:38.245Z,31.03
2023-05-18T13:19:11.221Z,32.12
2023-05-18T13:21:39.216Z,33.08
2023-05-18T13:24:07.588Z,34.71
2023-05-18T13:26:39.380Z,33.15
2023-05-18T13:29:08.706Z,34.65
2023-05-18T13:31:37.196Z,34.09
2023-05-18T13:34:05.304Z,34.17
2023-05-18T13:36:36.718Z,32.71
2023-05-18T13:39:07.341Z,34.94
2023-05-18T13:41:36.822Z,37.12
2023-05-18T13:44:04.930Z,37.71
2023-05-18T13:46:33.301Z,35.11
2023-05-18T13:49:01.294Z,35.57
2023-05-18T13:51:29.227Z,32.94
2023-05-18T13:53:57.043Z,35.54
2023-05-18T13:56:25.205Z,33.06
2023-05-18T13:58:53.114Z,33.83
2023-05-18T14:01:22.377Z,35.16
2023-05-18T14:03:50.145Z,37.13
2023-05-18T14:06:18.239Z,35.67
2023-05-18T14:08:46.283Z,35.50
2023-05-18T14:11:13.985Z,34.09
2023-05-18T14:13:41.712Z,33.64
2023-05-18T14:16:09.661Z,33.00
2023-05-18T14:18:37.505Z,32.49
2023-05-18T14:21:05.528Z,33.93
2023-05-18T14:23:33.638Z,35.51
2023-05-18T14:26:01.348Z,35.91
2023-05-18T14:28:30.300Z,37.59
2023-05-18T14:30:58.133Z,36.22
2023-05-18T14:33:25.933Z,35.87
2023-05-18T14:35:55.850Z,38.34
2023-05-18T14:38:26.882Z,37.45
2023-05-18T14:40:54.659Z,36.89
2023-05-18T14:43:22.639Z,37.99
2023-05-18T14:46:00.282Z,36.65
2023-05-18T14:48:35.957Z,36.76
2023-05-18T14:51:03.757Z,37.66
2023-05-18T14:53:31.480Z,37.51
2023-05-18T14:55:59.652Z,38.57
2023-05-18T14:58:27.336Z,37.30
2023-05-18T15:00:57.033Z,39.02
2023-05-18T15:03:27.917Z,37.78
2023-05-18T15:05:56.534Z,38.06
2023-05-18T15:08:24.618Z,38.33
2023-05-18T15:10:52.612Z,37.91
2023-05-18T15:13:20.642Z,38.24
2023-05-18T15:15:48.796Z,38.41
2023-05-18T15:18:17.076Z,39.30
2023-05-18T15:20:45.163Z,39.59
2023-05-18T15:23:13.389Z,39.64
2023-05-18T15:25:41.765Z,39.30
2023-05-18T15:28:11.445Z,40.54
2023-05-18T15:30:39.781Z,40.68
2023-05-18T15:33:07.750Z,40.64
2023-05-18T15:35:36.752Z,40.54
2023-05-18T15:38:04.588Z,41.15
2023-05-18T15:40:32.536Z,41.19
2023-05-18T15:43:01.231Z,41.73
2023-05-18T15:45:29.281Z,41.17
2023-05-18T15:47:57.514Z,41.85
2023-05-18T15:50:25.715Z,41.50
2023-05-18T15:52:53.426Z,40.50
2023-05-18T15:55:21.168Z,40.22
2023-05-18T15:57:48.891Z,39.97
2023-05-18T16:00:18.116Z,42.01
2023-05-18T16:02:46.037Z,42.46
2023-05-18T16:05:14.021Z,42.13
2023-05-18T16:07:42.429Z,42.71
2023-05-18T16:10:10.809Z,42.27
2023-05-18T16:12:38.469Z,41.36
2023-05-18T16:15:07.147Z,41.77
2023-05-18T16:17:35.077Z,42.59
2023-05-18T16:20:04.134Z,41.74
2023-05-18T16:22:31.999Z,42.20
2023-05-18T16:24:59.925Z,41.70
2023-05-18T16:27:27.817Z,41.50
2023-05-18T16:29:56.038Z,42.21
2023-05-18T16:32:24.750Z,42.66
2023-05-18T16:34:52.835Z,41.22
2023-05-18T16:37:20.639Z,43.18
2023-05-18T16:39:48.258Z,42.84
2023-05-18T16:42:18.389Z,41.68
2023-05-18T16:44:46.136Z,43.30
2023-05-18T16:47:14.054Z,43.41
2023-05-18T16:49:45.810Z,43.13
2023-05-18T16:52:16.086Z,43.49
2023-05-18T16:54:47.387Z,43.65
2023-05-18T16:57:22.212Z,43.66
2023-05-18T16:59:50.965Z,44.22
2023-05-18T17:02:18.926Z,44.82
2023-05-18T17:04:49.861Z,43.82
2023-05-18T17:07:18.025Z,44.06
2023-05-18T17:09:46.208Z,45.20
2023-05-18T17:12:13.919Z,44.03
2023-05-18T17:14:41.766Z,44.56
2023-05-18T17:17:09.848Z,43.69
2023-05-18T17:19:39.808Z,46.31
2023-05-18T17:22:09.968Z,45.19
2023-05-18T17:24:41.538Z,45.98
2023-05-18T17:27:09.496Z,44.83
2023-05-18T17:29:37.724Z,45.04
2023-05-18T17:32:05.947Z,45.78
2023-05-18T17:34:34.057Z,45.96
2023-05-18T17:37:01.804Z,45.99
2023-05-18T17:39:30.948Z,45.19
2023-05-18T17:42:00.375Z,48.44
2023-05-18T17:44:28.498Z,46.10
2023-05-18T17:46:56.681Z,47.08
2023-05-18T17:49:24.552Z,46.59
2023-05-18T17:51:52.740Z,46.95
2023-05-18T17:54:20.687Z,47.17
2023-05-18T17:56:48.732Z,46.04
2023-05-18T17:59:17.910Z,46.12
2023-05-18T18:01:50.309Z,46.38
2023-05-18T18:04:23.358Z,47.70
2023-05-18T18:06:54.381Z,47.52
2023-05-18T18:09:22.350Z,47.11
2023-05-18T18:11:50.362Z,47.33
2023-05-18T18:14:18.347Z,47.06
2023-05-18T18:16:46.256Z,48.23
2023-05-18T18:19:15.249Z,47.82
2023-05-18T18:21:43.282Z,48.86
2023-05-18T18:24:11.213Z,48.39
2023-05-18T18:26:40.662Z,48.66
2023-05-18T18:29:08.639Z,48.58
2023-05-18T18:31:39.400Z,49.32
2023-05-18T18:34:07.485Z,48.63
2023-05-18T18:36:35.947Z,48.63
2023-05-18T18:39:04.160Z,48.80
2023-05-18T18:41:32.805Z,49.70
2023-05-18T18:44:00.706Z,49.49
2023-05-18T18:46:28.781Z,50.74
2023-05-18T18:48:56.586Z,49.83
2023-05-18T18:51:24.317Z,49.55
2023-05-18T18:53:52.135Z,49.85
2023-05-18T18:56:21.243Z,50.75
2023-05-18T18:58:50.667Z,51.27
2023-05-18T19:01:18.602Z,50.91
2023-05-18T19:03:46.373Z,51.37
2023-05-18T19:06:15.196Z,51.91
2023-05-18T19:08:44.576Z,51.73
2023-05-18T19:11:12.479Z,52.49
2023-05-18T19:13:40.429Z,52.62
2023-05-18T19:16:08.918Z,52.71
2023-05-18T19:18:39.064Z,53.44
2023-05-18T19:21:07.268Z,53.91
2023-05-18T19:23:35.010Z,54.49
2023-05-18T19:26:03.140Z,55.21
2023-05-18T19:28:30.908Z,55.65
2023-05-18T19:30:58.712Z,56.36
2023-05-18T19:33:29.910Z,57.20
2023-05-18T19:35:57.672Z,56.15
2023-05-18T19:38:25.504Z,57.18
2023-05-18T19:40:53.549Z,56.38
2023-05-18T19:43:21.355Z,57.01
2023-05-18T19:45:50.232Z,57.15
2023-05-18T19:48:20.886Z,57.03
2023-05-18T19:50:51.844Z,57.99
2023-05-18T19:53:20.809Z,57.95
2023-05-18T19:55:49.096Z,58.65
2023-05-18T19:58:17.401Z,58.02
2023-05-18T20:00:45.039Z,58.03
2023-05-18T20:03:14.596Z,59.05
2023-05-18T20:05:43.822Z,58.84
2023-05-18T20:08:12.742Z,59.29
2023-05-18T20:10:40.998Z,60.03
2023-05-18T20:13:09.094Z,59.90
2023-05-18T20:15:39.444Z,61.09
2023-05-18T20:18:08.647Z,60.58
2023-05-18T20:20:37.169Z,60.65
2023-05-18T20:23:07.567Z,60.85
2023-05-18T20:25:39.478Z,60.74
2023-05-18T20:28:07.961Z,61.28
2023-05-18T20:30:37.066Z,60.95
2023-05-18T20:33:05.829Z,61.36
2023-05-18T20:35:34.640Z,61.01
2023-05-18T20:38:04.443Z,62.06
2023-05-18T20:40:34.950Z,61.65
2023-05-18T20:43:05.347Z,61.63
2023-05-18T20:45:33.421Z,61.96
2023-05-18T20:48:04.260Z,62.01
2023-05-18T20:50:33.771Z,61.92
2023-05-18T20:53:01.804Z,62.16
2023-05-18T20:55:29.736Z,62.68
2023-05-18T20:57:57.708Z,62.97
2023-05-18T21:00:26.034Z,62.55
2023-05-18T21:02:54.086Z,62.87
2023-05-18T21:05:23.457Z,63.05
2023-05-18T21:07:51.941Z,63.19
2023-05-18T21:10:19.804Z,63.96
2023-05-18T21:12:50.427Z,63.99
2023-05-18T21:15:18.606Z,64.00
2023-05-18T21:17:46.772Z,64.16
2023-05-18T21:20:14.808Z,64.88
2023-05-18T21:22:42.700Z,65.05
2023-05-18T21:25:10.834Z,64.90
2023-05-18T21:27:38.920Z,65.18
2023-05-18T21:30:07.511Z,65.56
2023-05-18T21:32:35.937Z,65.47
2023-05-18T21:35:04.489Z,65.72
2023-05-18T21:37:32.326Z,65.73
2023-05-18T21:40:00.186Z,66.08
2023-05-18T21:42:28.144Z,66.54
2023-05-18T21:44:55.881Z,66.45
2023-05-18T21:47:23.929Z,66.59
2023-05-18T21:49:51.987Z,66.72
2023-05-18T21:52:19.830Z,66.90
2023-05-18T21:54:47.513Z,66.97
2023-05-18T21:57:15.885Z,66.88
2023-05-18T21:59:43.594Z,66.88
2023-05-18T22:02:11.985Z,66.97
2023-05-18T22:04:39.900Z,67.12
2023-05-18T22:07:08.608Z,67.39
2023-05-18T22:09:36.848Z,67.57
2023-05-18T22:12:04.923Z,67.56
2023-05-18T22:14:32.998Z,68.00
2023-05-18T22:17:02.260Z,68.21
2023-05-18T22:19:30.793Z,68.33
2023-05-18T22:22:01.012Z,68.27
2023-05-18T22:24:28.924Z,68.27
2023-05-18T22:26:59.973Z,68.50
2023-05-18T22:29:27.892Z,68.74
2023-05-18T22:31:55.732Z,68.75
2023-05-18T22:34:23.569Z,69.00
2023-05-18T22:36:53.855Z,69.23
2023-05-18T22:39:21.738Z,69.24
2023-05-18T22:41:49.990Z,69.25
2023-05-18T22:44:17.789Z,69.49
2023-05-18T22:46:45.954Z,69.44
2023-05-18T22:49:13.750Z,69.12
2023-05-18T22:51:41.465Z,68.96
2023-05-18T22:54:09.368Z,68.86
2023-05-18T22:56:37.415Z,68.88
2023-05-18T22:59:07.344Z,68.94
2023-05-18T23:01:37.774Z,68.89
2023-05-18T23:04:06.903Z,68.92
2023-05-18T23:06:34.741Z,69.36
2023-05-18T23:09:02.619Z,69.37
2023-05-18T23:11:31.047Z,69.63
2023-05-18T23:14:02.655Z,69.82
2023-05-18T23:16:30.659Z,69.94
2023-05-18T23:18:58.802Z,70.24
2023-05-18T23:21:26.770Z,70.51
2023-05-18T23:23:55.792Z,70.49
2023-05-18T23:26:24.086Z,70.58
2023-05-18T23:28:51.809Z,70.53
2023-05-18T23:31:19.483Z,70.57
2023-05-18T23:33:47.744Z,70.88
2023-05-18T23:36:20.203Z,70.88
2023-05-18T23:38:51.119Z,71.08
2023-05-18T23:41:19.588Z,71.34
2023-05-18T23:43:47.743Z,71.51
2023-05-18T23:46:17.066Z,71.76
2023-05-18T23:48:45.250Z,71.84
2023-05-18T23:51:16.751Z,71.99
2023-05-18T23:53:49.477Z,71.98
2023-05-18T23:56:18.184Z,71.89
2023-05-18T23:58:47.516Z,72.01
